sensor_id;sensor_type;location;lat;lon;timestamp;pressure;altitude;pressure_sealevel;temperature;humidity
54628;BME280;40525;55.926;21.066;2022-12-11T00:01:49;101242.64;;;-5.46;76.62
54628;BME280;40525;55.926;21.066;2022-12-11T00:04:13;101247.52;;;-5.55;76.66
54628;BME280;40525;55.926;21.066;2022-12-11T00:06:40;101247.73;;;-5.62;76.98
54628;BME280;40525;55.926;21.066;2022-12-11T00:09:08;101237.14;;;-5.58;77.29
54628;BME280;40525;55.926;21.066;2022-12-11T00:11:35;101242.80;;;-5.56;77.28
54628;BME280;40525;55.926;21.066;2022-12-11T00:14:02;101244.52;;;-5.55;77.20
54628;BME280;40525;55.926;21.066;2022-12-11T00:16:29;101240.18;;;-5.57;76.97
54628;BME280;40525;55.926;21.066;2022-12-11T00:18:55;101241.85;;;-5.58;77.05
54628;BME280;40525;55.926;21.066;2022-12-11T00:21:22;101242.81;;;-5.54;77.22
54628;BME280;40525;55.926;21.066;2022-12-11T00:23:49;101242.91;;;-5.51;77.20
54628;BME280;40525;55.926;21.066;2022-12-11T00:26:15;101246.17;;;-5.42;77.31
54628;BME280;40525;55.926;21.066;2022-12-11T00:28:43;101235.67;;;-5.34;77.30
54628;BME280;40525;55.926;21.066;2022-12-11T00:31:14;101232.36;;;-5.30;77.14
54628;BME280;40525;55.926;21.066;2022-12-11T00:33:43;101229.55;;;-5.23;77.20
54628;BME280;40525;55.926;21.066;2022-12-11T00:36:12;101235.28;;;-5.18;77.04
54628;BME280;40525;55.926;21.066;2022-12-11T00:38:40;101227.63;;;-5.15;76.93
54628;BME280;40525;55.926;21.066;2022-12-11T00:41:08;101229.82;;;-5.13;76.83
54628;BME280;40525;55.926;21.066;2022-12-11T00:43:34;101222.58;;;-5.12;76.77
54628;BME280;40525;55.926;21.066;2022-12-11T00:46:01;101223.06;;;-5.09;76.79
54628;BME280;40525;55.926;21.066;2022-12-11T00:48:29;101220.87;;;-5.11;76.70
54628;BME280;40525;55.926;21.066;2022-12-11T00:50:55;101223.86;;;-5.12;76.71
54628;BME280;40525;55.926;21.066;2022-12-11T00:53:22;101235.88;;;-5.11;76.85
54628;BME280;40525;55.926;21.066;2022-12-11T00:55:50;101238.62;;;-5.04;77.10
54628;BME280;40525;55.926;21.066;2022-12-11T00:58:16;101238.83;;;-4.97;77.22
54628;BME280;40525;55.926;21.066;2022-12-11T01:00:43;101240.17;;;-4.94;77.11
54628;BME280;40525;55.926;21.066;2022-12-11T01:03:12;101240.37;;;-4.86;77.29
54628;BME280;40525;55.926;21.066;2022-12-11T01:05:39;101245.70;;;-4.78;77.27
54628;BME280;40525;55.926;21.066;2022-12-11T01:08:06;101239.03;;;-4.72;77.31
54628;BME280;40525;55.926;21.066;2022-12-11T01:10:33;101247.36;;;-4.64;77.30
54628;BME280;40525;55.926;21.066;2022-12-11T01:13:03;101249.61;;;-4.59;77.25
54628;BME280;40525;55.926;21.066;2022-12-11T01:15:40;101254.94;;;-4.53;77.28
54628;BME280;40525;55.926;21.066;2022-12-11T01:18:13;101248.12;;;-4.51;77.20
54628;BME280;40525;55.926;21.066;2022-12-11T01:20:40;101242.64;;;-4.46;77.28
54628;BME280;40525;55.926;21.066;2022-12-11T01:23:09;101241.00;;;-4.44;77.19
54628;BME280;40525;55.926;21.066;2022-12-11T01:25:38;101240.23;;;-4.40;77.29
54628;BME280;40525;55.926;21.066;2022-12-11T01:28:05;101235.57;;;-4.37;77.22
54628;BME280;40525;55.926;21.066;2022-12-11T01:30:32;101238.19;;;-4.36;77.23
54628;BME280;40525;55.926;21.066;2022-12-11T01:32:59;101234.06;;;-4.46;76.93
54628;BME280;40525;55.926;21.066;2022-12-11T01:35:26;101239.55;;;-4.50;77.25
54628;BME280;40525;55.926;21.066;2022-12-11T01:37:53;101235.64;;;-4.52;77.56
54628;BME280;40525;55.926;21.066;2022-12-11T01:40:20;101237.88;;;-4.48;77.73
54628;BME280;40525;55.926;21.066;2022-12-11T01:42:47;101231.05;;;-4.47;77.80
54628;BME280;40525;55.926;21.066;2022-12-11T01:48:04;101229.16;;;-4.55;77.99
54628;BME280;40525;55.926;21.066;2022-12-11T01:50:38;101226.63;;;-4.53;78.12
54628;BME280;40525;55.926;21.066;2022-12-11T01:53:09;101227.06;;;-4.52;78.27
54628;BME280;40525;55.926;21.066;2022-12-11T01:55:39;101224.19;;;-4.47;78.46
54628;BME280;40525;55.926;21.066;2022-12-11T01:58:07;101220.94;;;-4.40;78.59
54628;BME280;40525;55.926;21.066;2022-12-11T02:00:35;101214.08;;;-4.39;78.44
54628;BME280;40525;55.926;21.066;2022-12-11T02:03:02;101211.37;;;-4.45;78.26
54628;BME280;40525;55.926;21.066;2022-12-11T02:05:28;101207.94;;;-4.44;78.58
54628;BME280;40525;55.926;21.066;2022-12-11T02:07:57;101212.36;;;-4.39;78.76
54628;BME280;40525;55.926;21.066;2022-12-11T02:10:41;101210.69;;;-4.37;78.60
54628;BME280;40525;55.926;21.066;2022-12-11T02:13:19;101213.69;;;-4.37;78.62
54628;BME280;40525;55.926;21.066;2022-12-11T02:16:16;101215.41;;;-4.38;78.62
54628;BME280;40525;55.926;21.066;2022-12-11T02:21:21;101212.09;;;-4.51;78.38
54628;BME280;40525;55.926;21.066;2022-12-11T02:29:52;101213.90;;;-4.47;78.74
54628;BME280;40525;55.926;21.066;2022-12-11T02:32:45;101216.52;;;-4.45;78.74
54628;BME280;40525;55.926;21.066;2022-12-11T02:35:19;101213.47;;;-4.46;78.73
54628;BME280;40525;55.926;21.066;2022-12-11T02:37:50;101210.47;;;-4.46;78.79
54628;BME280;40525;55.926;21.066;2022-12-11T02:40:21;101212.19;;;-4.46;78.69
54628;BME280;40525;55.926;21.066;2022-12-11T02:42:51;101211.76;;;-4.46;78.86
54628;BME280;40525;55.926;21.066;2022-12-11T02:45:21;101209.61;;;-4.46;78.79
54628;BME280;40525;55.926;21.066;2022-12-11T02:47:49;101209.66;;;-4.45;78.73
54628;BME280;40525;55.926;21.066;2022-12-11T02:50:19;101208.23;;;-4.51;78.66
54628;BME280;40525;55.926;21.066;2022-12-11T02:52:50;101214.28;;;-4.49;78.59
54628;BME280;40525;55.926;21.066;2022-12-11T02:55:19;101215.91;;;-4.53;78.57
54628;BME280;40525;55.926;21.066;2022-12-11T02:57:48;101216.72;;;-4.54;78.59
54628;BME280;40525;55.926;21.066;2022-12-11T03:00:20;101214.23;;;-4.51;78.72
54628;BME280;40525;55.926;21.066;2022-12-11T03:02:47;101209.13;;;-4.49;78.54
54628;BME280;40525;55.926;21.066;2022-12-11T03:05:14;101208.61;;;-4.53;78.34
54628;BME280;40525;55.926;21.066;2022-12-11T03:07:42;101211.96;;;-4.56;78.32
54628;BME280;40525;55.926;21.066;2022-12-11T03:10:12;101208.06;;;-4.57;78.41
54628;BME280;40525;55.926;21.066;2022-12-11T03:12:42;101206.04;;;-4.53;78.32
54628;BME280;40525;55.926;21.066;2022-12-11T03:15:13;101205.27;;;-4.49;78.30
54628;BME280;40525;55.926;21.066;2022-12-11T03:17:50;101193.69;;;-4.49;78.07
54628;BME280;40525;55.926;21.066;2022-12-11T03:20:40;101188.93;;;-4.51;77.98
54628;BME280;40525;55.926;21.066;2022-12-11T03:23:31;101192.41;;;-4.49;77.81
54628;BME280;40525;55.926;21.066;2022-12-11T03:26:11;101189.37;;;-4.50;77.75
54628;BME280;40525;55.926;21.066;2022-12-11T03:37:06;101180.83;;;-4.49;77.38
54628;BME280;40525;55.926;21.066;2022-12-11T03:39:45;101175.25;;;-4.48;77.29
54628;BME280;40525;55.926;21.066;2022-12-11T03:42:10;101167.95;;;-4.49;77.09
54628;BME280;40525;55.926;21.066;2022-12-11T03:44:41;101161.52;;;-4.49;77.09
54628;BME280;40525;55.926;21.066;2022-12-11T03:47:09;101163.72;;;-4.47;76.98
54628;BME280;40525;55.926;21.066;2022-12-11T03:49:39;101152.05;;;-4.50;76.94
54628;BME280;40525;55.926;21.066;2022-12-11T03:52:09;101149.00;;;-4.53;76.75
54628;BME280;40525;55.926;21.066;2022-12-11T03:54:39;101150.67;;;-4.55;76.85
54628;BME280;40525;55.926;21.066;2022-12-11T03:57:09;101167.83;;;-4.54;76.68
54628;BME280;40525;55.926;21.066;2022-12-11T03:59:37;101150.63;;;-4.56;76.91
54628;BME280;40525;55.926;21.066;2022-12-11T04:02:03;101153.68;;;-4.54;76.89
54628;BME280;40525;55.926;21.066;2022-12-11T04:04:40;101158.95;;;-4.49;76.96
54628;BME280;40525;55.926;21.066;2022-12-11T04:07:07;101155.61;;;-4.45;76.96
54628;BME280;40525;55.926;21.066;2022-12-11T04:09:35;101143.56;;;-4.46;76.89
54628;BME280;40525;55.926;21.066;2022-12-11T04:12:02;101151.79;;;-4.43;76.83
54628;BME280;40525;55.926;21.066;2022-12-11T04:14:28;101142.36;;;-4.43;77.00
54628;BME280;40525;55.926;21.066;2022-12-11T04:17:13;101142.83;;;-4.40;77.03
54628;BME280;40525;55.926;21.066;2022-12-11T04:19:45;101156.55;;;-4.41;76.85
54628;BME280;40525;55.926;21.066;2022-12-11T04:22:30;101153.13;;;-4.40;77.11
54628;BME280;40525;55.926;21.066;2022-12-11T04:25:16;101153.11;;;-4.42;77.01
54628;BME280;40525;55.926;21.066;2022-12-11T04:27:43;101148.87;;;-4.40;77.18
54628;BME280;40525;55.926;21.066;2022-12-11T04:30:20;101151.95;;;-4.36;77.28
54628;BME280;40525;55.926;21.066;2022-12-11T04:32:48;101158.83;;;-4.35;77.33
54628;BME280;40525;55.926;21.066;2022-12-11T04:35:16;101165.69;;;-4.35;77.24
54628;BME280;40525;55.926;21.066;2022-12-11T04:37:42;101167.83;;;-4.35;77.26
54628;BME280;40525;55.926;21.066;2022-12-11T04:40:12;101168.56;;;-4.42;77.24
54628;BME280;40525;55.926;21.066;2022-12-11T04:42:41;101171.81;;;-4.49;77.40
54628;BME280;40525;55.926;21.066;2022-12-11T04:45:09;101177.74;;;-4.52;77.73
54628;BME280;40525;55.926;21.066;2022-12-11T04:47:37;101187.26;;;-4.49;78.13
54628;BME280;40525;55.926;21.066;2022-12-11T04:50:10;101185.11;;;-4.49;78.22
54628;BME280;40525;55.926;21.066;2022-12-11T04:52:35;101177.41;;;-4.48;78.45
54628;BME280;40525;55.926;21.066;2022-12-11T04:55:08;101182.97;;;-4.48;78.24
54628;BME280;40525;55.926;21.066;2022-12-11T04:57:31;101193.91;;;-4.57;78.46
54628;BME280;40525;55.926;21.066;2022-12-11T04:59:59;101188.24;;;-4.61;78.80
54628;BME280;40525;55.926;21.066;2022-12-11T05:02:25;101198.23;;;-4.56;79.16
54628;BME280;40525;55.926;21.066;2022-12-11T05:04:52;101198.33;;;-4.52;79.26
54628;BME280;40525;55.926;21.066;2022-12-11T05:07:19;101195.84;;;-4.48;79.20
54628;BME280;40525;55.926;21.066;2022-12-11T05:09:45;101206.05;;;-4.52;79.22
54628;BME280;40525;55.926;21.066;2022-12-11T05:12:12;101205.27;;;-4.49;79.42
54628;BME280;40525;55.926;21.066;2022-12-11T05:14:38;101213.67;;;-4.56;79.19
54628;BME280;40525;55.926;21.066;2022-12-11T05:17:05;101212.63;;;-4.64;79.20
54628;BME280;40525;55.926;21.066;2022-12-11T05:19:32;101215.58;;;-4.66;79.30
54628;BME280;40525;55.926;21.066;2022-12-11T05:21:58;101215.03;;;-4.71;79.46
54628;BME280;40525;55.926;21.066;2022-12-11T05:24:25;101215.50;;;-4.69;79.81
54628;BME280;40525;55.926;21.066;2022-12-11T05:26:51;101213.91;;;-4.64;80.00
54628;BME280;40525;55.926;21.066;2022-12-11T05:29:18;101211.39;;;-4.61;79.92
54628;BME280;40525;55.926;21.066;2022-12-11T05:31:45;101216.72;;;-4.55;79.99
54628;BME280;40525;55.926;21.066;2022-12-11T05:34:11;101206.60;;;-4.47;80.05
54628;BME280;40525;55.926;21.066;2022-12-11T05:36:40;101212.70;;;-4.44;79.79
54628;BME280;40525;55.926;21.066;2022-12-11T05:39:06;101206.27;;;-4.44;79.66
54628;BME280;40525;55.926;21.066;2022-12-11T05:41:34;101203.36;;;-4.39;79.73
54628;BME280;40525;55.926;21.066;2022-12-11T05:44:01;101203.48;;;-4.33;79.65
54628;BME280;40525;55.926;21.066;2022-12-11T05:46:29;101207.77;;;-4.33;79.37
54628;BME280;40525;55.926;21.066;2022-12-11T05:49:00;101213.65;;;-4.39;79.06
54628;BME280;40525;55.926;21.066;2022-12-11T05:51:27;101216.13;;;-4.43;78.63
54628;BME280;40525;55.926;21.066;2022-12-11T05:53:56;101214.42;;;-4.43;79.19
54628;BME280;40525;55.926;21.066;2022-12-11T05:56:26;101208.06;;;-4.40;79.06
54628;BME280;40525;55.926;21.066;2022-12-11T05:58:54;101218.58;;;-4.48;78.85
54628;BME280;40525;55.926;21.066;2022-12-11T06:01:29;101221.16;;;-4.48;78.95
54628;BME280;40525;55.926;21.066;2022-12-11T06:04:01;101230.16;;;-4.48;78.61
54628;BME280;40525;55.926;21.066;2022-12-11T06:06:28;101220.29;;;-4.48;78.77
54628;BME280;40525;55.926;21.066;2022-12-11T06:08:56;101226.68;;;-4.50;78.68
54628;BME280;40525;55.926;21.066;2022-12-11T06:11:24;101218.92;;;-4.52;78.60
54628;BME280;40525;55.926;21.066;2022-12-11T06:13:52;101219.72;;;-4.54;78.62
54628;BME280;40525;55.926;21.066;2022-12-11T06:16:19;101220.92;;;-4.57;78.68
54628;BME280;40525;55.926;21.066;2022-12-11T06:18:47;101224.27;;;-4.61;78.48
54628;BME280;40525;55.926;21.066;2022-12-11T06:21:31;101224.59;;;-4.65;78.58
54628;BME280;40525;55.926;21.066;2022-12-11T06:23:58;101219.27;;;-4.73;78.54
54628;BME280;40525;55.926;21.066;2022-12-11T06:26:27;101224.98;;;-4.67;78.77
54628;BME280;40525;55.926;21.066;2022-12-11T06:28:54;101215.26;;;-4.61;78.86
54628;BME280;40525;55.926;21.066;2022-12-11T06:31:21;101211.02;;;-4.59;78.63
54628;BME280;40525;55.926;21.066;2022-12-11T06:33:47;101201.53;;;-4.62;78.64
54628;BME280;40525;55.926;21.066;2022-12-11T06:36:16;101205.01;;;-4.60;78.65
54628;BME280;40525;55.926;21.066;2022-12-11T06:38:44;101197.72;;;-4.60;78.37
54628;BME280;40525;55.926;21.066;2022-12-11T06:41:12;101196.42;;;-4.60;78.59
54628;BME280;40525;55.926;21.066;2022-12-11T06:43:40;101190.38;;;-4.62;78.51
54628;BME280;40525;55.926;21.066;2022-12-11T06:46:14;101183.09;;;-4.61;78.56
54628;BME280;40525;55.926;21.066;2022-12-11T06:48:38;101175.38;;;-4.61;78.37
54628;BME280;40525;55.926;21.066;2022-12-11T06:51:09;101174.98;;;-4.61;78.43
54628;BME280;40525;55.926;21.066;2022-12-11T06:53:37;101175.23;;;-4.67;77.96
54628;BME280;40525;55.926;21.066;2022-12-11T06:56:11;101164.30;;;-4.76;78.12
54628;BME280;40525;55.926;21.066;2022-12-11T06:58:36;101166.91;;;-4.75;78.43
54628;BME280;40525;55.926;21.066;2022-12-11T07:01:04;101166.23;;;-4.67;78.40
54628;BME280;40525;55.926;21.066;2022-12-11T07:03:40;101156.80;;;-4.68;78.23
54628;BME280;40525;55.926;21.066;2022-12-11T07:06:06;101155.51;;;-4.68;78.14
54628;BME280;40525;55.926;21.066;2022-12-11T07:08:33;101155.00;;;-4.71;78.14
54628;BME280;40525;55.926;21.066;2022-12-11T07:11:09;101153.84;;;-4.66;78.15
54628;BME280;40525;55.926;21.066;2022-12-11T07:13:37;101155.08;;;-4.68;77.94
54628;BME280;40525;55.926;21.066;2022-12-11T07:16:04;101146.55;;;-4.65;77.94
54628;BME280;40525;55.926;21.066;2022-12-11T07:18:33;101139.52;;;-4.74;77.37
54628;BME280;40525;55.926;21.066;2022-12-11T07:20:59;101134.23;;;-4.79;77.68
54628;BME280;40525;55.926;21.066;2022-12-11T07:23:26;101133.42;;;-4.78;77.81
54628;BME280;40525;55.926;21.066;2022-12-11T07:25:54;101131.58;;;-4.82;77.62
54628;BME280;40525;55.926;21.066;2022-12-11T07:28:21;101134.20;;;-4.80;77.68
54628;BME280;40525;55.926;21.066;2022-12-11T07:30:48;101132.57;;;-4.77;77.79
54628;BME280;40525;55.926;21.066;2022-12-11T07:33:14;101144.66;;;-4.73;77.86
54628;BME280;40525;55.926;21.066;2022-12-11T07:35:41;101143.94;;;-4.67;77.80
54628;BME280;40525;55.926;21.066;2022-12-11T07:38:08;101153.50;;;-4.63;77.74
54628;BME280;40525;55.926;21.066;2022-12-11T07:40:35;101140.42;;;-4.71;77.40
54628;BME280;40525;55.926;21.066;2022-12-11T07:43:01;101147.84;;;-4.65;77.76
54628;BME280;40525;55.926;21.066;2022-12-11T07:45:28;101148.02;;;-4.58;77.74
54628;BME280;40525;55.926;21.066;2022-12-11T07:47:55;101151.15;;;-4.52;77.77
54628;BME280;40525;55.926;21.066;2022-12-11T07:50:22;101155.53;;;-4.48;77.64
54628;BME280;40525;55.926;21.066;2022-12-11T07:52:48;101163.75;;;-4.45;77.46
54628;BME280;40525;55.926;21.066;2022-12-11T07:55:15;101166.16;;;-4.52;77.27
54628;BME280;40525;55.926;21.066;2022-12-11T07:57:41;101168.38;;;-4.49;77.41
54628;BME280;40525;55.926;21.066;2022-12-11T08:00:09;101164.52;;;-4.49;77.25
54628;BME280;40525;55.926;21.066;2022-12-11T08:02:38;101170.45;;;-4.52;77.42
54628;BME280;40525;55.926;21.066;2022-12-11T08:05:06;101173.79;;;-4.56;77.18
54628;BME280;40525;55.926;21.066;2022-12-11T08:07:34;101180.65;;;-4.57;77.48
54628;BME280;40525;55.926;21.066;2022-12-11T08:10:02;101185.80;;;-4.57;77.49
54628;BME280;40525;55.926;21.066;2022-12-11T08:12:29;101188.66;;;-4.62;77.47
54628;BME280;40525;55.926;21.066;2022-12-11T08:14:56;101189.52;;;-4.63;77.70
54628;BME280;40525;55.926;21.066;2022-12-11T08:17:23;101196.77;;;-4.64;77.71
54628;BME280;40525;55.926;21.066;2022-12-11T08:19:49;101198.95;;;-4.62;77.80
54628;BME280;40525;55.926;21.066;2022-12-11T08:22:16;101195.95;;;-4.63;77.95
54628;BME280;40525;55.926;21.066;2022-12-11T08:24:43;101196.20;;;-4.69;77.73
54628;BME280;40525;55.926;21.066;2022-12-11T08:27:12;101201.91;;;-4.64;78.07
54628;BME280;40525;55.926;21.066;2022-12-11T08:29:38;101197.23;;;-4.63;77.94
54628;BME280;40525;55.926;21.066;2022-12-11T08:32:05;101198.15;;;-4.59;78.10
54628;BME280;40525;55.926;21.066;2022-12-11T08:34:32;101198.62;;;-4.58;77.95
54628;BME280;40525;55.926;21.066;2022-12-11T08:36:58;101203.24;;;-4.62;78.03
54628;BME280;40525;55.926;21.066;2022-12-11T08:39:25;101211.39;;;-4.61;78.05
54628;BME280;40525;55.926;21.066;2022-12-11T08:41:52;101203.58;;;-4.66;78.17
54628;BME280;40525;55.926;21.066;2022-12-11T08:44:19;101201.95;;;-4.62;78.33
54628;BME280;40525;55.926;21.066;2022-12-11T08:46:46;101201.01;;;-4.66;78.14
54628;BME280;40525;55.926;21.066;2022-12-11T08:49:13;101198.48;;;-4.64;78.40
54628;BME280;40525;55.926;21.066;2022-12-11T08:51:39;101204.19;;;-4.59;78.39
54628;BME280;40525;55.926;21.066;2022-12-11T08:54:06;101207.72;;;-4.54;78.43
54628;BME280;40525;55.926;21.066;2022-12-11T08:56:32;101206.56;;;-4.49;78.21
54628;BME280;40525;55.926;21.066;2022-12-11T08:59:00;101210.34;;;-4.52;77.94
54628;BME280;40525;55.926;21.066;2022-12-11T09:01:27;101205.14;;;-4.55;78.02
54628;BME280;40525;55.926;21.066;2022-12-11T09:03:55;101200.91;;;-4.52;78.20
54628;BME280;40525;55.926;21.066;2022-12-11T09:06:24;101203.05;;;-4.53;78.12
54628;BME280;40525;55.926;21.066;2022-12-11T09:08:53;101194.47;;;-4.52;77.97
54628;BME280;40525;55.926;21.066;2022-12-11T09:11:23;101201.47;;;-4.46;78.19
54628;BME280;40525;55.926;21.066;2022-12-11T09:13:54;101203.27;;;-4.43;77.87
54628;BME280;40525;55.926;21.066;2022-12-11T09:16:23;101202.02;;;-4.42;78.00
54628;BME280;40525;55.926;21.066;2022-12-11T09:18:51;101199.87;;;-4.41;78.05
54628;BME280;40525;55.926;21.066;2022-12-11T09:21:22;101199.67;;;-4.31;78.06
54628;BME280;40525;55.926;21.066;2022-12-11T09:23:54;101193.35;;;-4.26;78.02
54628;BME280;40525;55.926;21.066;2022-12-11T09:26:23;101193.92;;;-4.19;77.98
54628;BME280;40525;55.926;21.066;2022-12-11T09:28:51;101196.70;;;-4.10;77.83
54628;BME280;40525;55.926;21.066;2022-12-11T09:31:22;101198.34;;;-4.14;77.19
54628;BME280;40525;55.926;21.066;2022-12-11T09:33:58;101204.64;;;-4.20;77.03
54628;BME280;40525;55.926;21.066;2022-12-11T09:36:27;101200.69;;;-4.24;77.44
54628;BME280;40525;55.926;21.066;2022-12-11T09:38:53;101196.88;;;-4.21;77.54
54628;BME280;40525;55.926;21.066;2022-12-11T09:44:31;101195.59;;;-4.21;77.52
54628;BME280;40525;55.926;21.066;2022-12-11T09:55:22;101192.81;;;-3.93;77.49
54628;BME280;40525;55.926;21.066;2022-12-11T09:58:20;101192.42;;;-3.90;77.23
54628;BME280;40525;55.926;21.066;2022-12-11T10:01:08;101184.66;;;-3.92;76.90
54628;BME280;40525;55.926;21.066;2022-12-11T10:12:13;101162.75;;;-3.70;76.91
54628;BME280;40525;55.926;21.066;2022-12-11T10:17:30;101158.14;;;-3.64;76.69
54628;BME280;40525;55.926;21.066;2022-12-11T10:20:02;101158.78;;;-3.54;76.73
54628;BME280;40525;55.926;21.066;2022-12-11T10:22:33;101143.39;;;-3.49;76.60
54628;BME280;40525;55.926;21.066;2022-12-11T10:25:04;101137.09;;;-3.43;76.50
54628;BME280;40525;55.926;21.066;2022-12-11T10:27:37;101129.84;;;-3.39;76.27
54628;BME280;40525;55.926;21.066;2022-12-11T10:30:15;101129.48;;;-3.34;76.45
54628;BME280;40525;55.926;21.066;2022-12-11T10:38:30;101115.89;;;-3.50;76.28
54628;BME280;40525;55.926;21.066;2022-12-11T10:43:42;101107.30;;;-3.49;76.27
54628;BME280;40525;55.926;21.066;2022-12-11T10:46:16;101097.36;;;-3.53;76.31
54628;BME280;40525;55.926;21.066;2022-12-11T10:51:34;101090.29;;;-3.41;76.45
54628;BME280;40525;55.926;21.066;2022-12-11T10:56:45;101077.40;;;-3.40;76.03
54628;BME280;40525;55.926;21.066;2022-12-11T11:01:57;101078.06;;;-3.51;76.15
54628;BME280;40525;55.926;21.066;2022-12-11T11:04:32;101069.86;;;-3.54;76.06
54628;BME280;40525;55.926;21.066;2022-12-11T11:07:12;101059.45;;;-3.59;76.25
54628;BME280;40525;55.926;21.066;2022-12-11T11:09:47;101059.48;;;-3.57;76.41
54628;BME280;40525;55.926;21.066;2022-12-11T11:12:23;101047.30;;;-3.67;76.27
54628;BME280;40525;55.926;21.066;2022-12-11T11:14:59;101042.01;;;-3.75;76.25
54628;BME280;40525;55.926;21.066;2022-12-11T11:17:29;101036.92;;;-3.70;76.78
54628;BME280;40525;55.926;21.066;2022-12-11T11:19:59;101031.73;;;-3.72;76.86
54628;BME280;40525;55.926;21.066;2022-12-11T11:22:30;101030.58;;;-3.66;77.03
54628;BME280;40525;55.926;21.066;2022-12-11T11:24:57;101022.95;;;-3.60;77.09
54628;BME280;40525;55.926;21.066;2022-12-11T11:27:30;101010.06;;;-3.60;77.09
54628;BME280;40525;55.926;21.066;2022-12-11T11:30:05;101012.27;;;-3.56;77.00
54628;BME280;40525;55.926;21.066;2022-12-11T11:32:38;101008.87;;;-3.54;77.03
54628;BME280;40525;55.926;21.066;2022-12-11T11:37:43;101010.64;;;-3.49;77.07
54628;BME280;40525;55.926;21.066;2022-12-11T11:40:17;101012.89;;;-3.44;77.08
54628;BME280;40525;55.926;21.066;2022-12-11T11:43:00;101001.25;;;-3.46;76.74
54628;BME280;40525;55.926;21.066;2022-12-11T11:45:51;101004.63;;;-3.50;76.88
54628;BME280;40525;55.926;21.066;2022-12-11T11:51:20;101008.03;;;-3.52;76.70
54628;BME280;40525;55.926;21.066;2022-12-11T11:53:57;100998.89;;;-3.59;76.90
54628;BME280;40525;55.926;21.066;2022-12-11T11:56:28;100992.55;;;-3.54;77.12
54628;BME280;40525;55.926;21.066;2022-12-11T11:59:22;100989.11;;;-3.53;76.89
54628;BME280;40525;55.926;21.066;2022-12-11T12:02:01;100984.05;;;-3.48;77.08
54628;BME280;40525;55.926;21.066;2022-12-11T12:04:33;100970.69;;;-3.49;77.08
54628;BME280;40525;55.926;21.066;2022-12-11T12:07:41;100961.64;;;-3.51;77.08
54628;BME280;40525;55.926;21.066;2022-12-11T12:10:31;100962.16;;;-3.45;77.02
54628;BME280;40525;55.926;21.066;2022-12-11T12:13:19;100960.94;;;-3.42;76.78
54628;BME280;40525;55.926;21.066;2022-12-11T12:15:56;100959.56;;;-3.48;76.84
54628;BME280;40525;55.926;21.066;2022-12-11T12:18:48;100954.83;;;-3.49;76.96
54628;BME280;40525;55.926;21.066;2022-12-11T12:21:34;100950.08;;;-3.49;76.84
54628;BME280;40525;55.926;21.066;2022-12-11T12:24:27;100951.83;;;-3.48;76.71
54628;BME280;40525;55.926;21.066;2022-12-11T12:26:59;100951.42;;;-3.46;76.88
54628;BME280;40525;55.926;21.066;2022-12-11T12:32:39;100945.69;;;-3.55;76.53
54628;BME280;40525;55.926;21.066;2022-12-11T12:35:34;100941.42;;;-3.53;76.91
54628;BME280;40525;55.926;21.066;2022-12-11T12:38:12;100947.04;;;-3.52;76.76
54628;BME280;40525;55.926;21.066;2022-12-11T12:41:03;100946.61;;;-3.51;76.78
54628;BME280;40525;55.926;21.066;2022-12-11T12:43:58;100937.12;;;-3.54;76.49
54628;BME280;40525;55.926;21.066;2022-12-11T12:46:42;100935.35;;;-3.57;76.55
54628;BME280;40525;55.926;21.066;2022-12-11T12:52:14;100929.22;;;-3.65;76.59
54628;BME280;40525;55.926;21.066;2022-12-11T12:54:46;100927.11;;;-3.64;76.54
54628;BME280;40525;55.926;21.066;2022-12-11T12:57:15;100929.63;;;-3.67;76.27
54628;BME280;40525;55.926;21.066;2022-12-11T12:59:43;100926.95;;;-3.73;76.29
54628;BME280;40525;55.926;21.066;2022-12-11T13:02:15;100925.52;;;-3.82;75.89
54628;BME280;40525;55.926;21.066;2022-12-11T13:04:43;100931.43;;;-3.88;76.32
54628;BME280;40525;55.926;21.066;2022-12-11T13:07:21;100927.50;;;-3.91;76.44
54628;BME280;40525;55.926;21.066;2022-12-11T13:12:43;100928.27;;;-3.98;76.60
54628;BME280;40525;55.926;21.066;2022-12-11T13:15:30;100918.42;;;-3.96;76.79
54628;BME280;40525;55.926;21.066;2022-12-11T13:18:29;100928.85;;;-3.88;76.83
54628;BME280;40525;55.926;21.066;2022-12-11T13:20:47;100920.66;;;-3.89;76.65
54628;BME280;40525;55.926;21.066;2022-12-11T13:23:29;100913.80;;;-3.90;76.48
54628;BME280;40525;55.926;21.066;2022-12-11T13:25:55;100915.39;;;-3.97;76.26
54628;BME280;40525;55.926;21.066;2022-12-11T13:33:50;100900.64;;;-4.07;76.46
54628;BME280;40525;55.926;21.066;2022-12-11T13:36:29;100906.94;;;-4.15;76.37
54628;BME280;40525;55.926;21.066;2022-12-11T13:39:00;100905.52;;;-4.22;76.50
54628;BME280;40525;55.926;21.066;2022-12-11T13:41:29;100903.21;;;-4.32;76.43
54628;BME280;40525;55.926;21.066;2022-12-11T13:43:59;100899.31;;;-4.34;76.85
54628;BME280;40525;55.926;21.066;2022-12-11T13:46:29;100904.00;;;-4.35;76.77
54628;BME280;40525;55.926;21.066;2022-12-11T13:49:00;100902.72;;;-4.35;76.86
54628;BME280;40525;55.926;21.066;2022-12-11T13:51:29;100895.35;;;-4.40;76.78
54628;BME280;40525;55.926;21.066;2022-12-11T13:54:14;100892.64;;;-4.46;76.92
54628;BME280;40525;55.926;21.066;2022-12-11T13:56:58;100891.82;;;-4.45;77.25
54628;BME280;40525;55.926;21.066;2022-12-11T13:59:28;100886.73;;;-4.42;77.03
54628;BME280;40525;55.926;21.066;2022-12-11T14:02:12;100878.06;;;-4.47;76.98
54628;BME280;40525;55.926;21.066;2022-12-11T14:04:42;100877.16;;;-4.49;77.23
54628;BME280;40525;55.926;21.066;2022-12-11T14:07:10;100875.31;;;-4.56;76.89
54628;BME280;40525;55.926;21.066;2022-12-11T14:09:44;100877.42;;;-4.57;77.35
54628;BME280;40525;55.926;21.066;2022-12-11T14:12:17;100867.53;;;-4.59;77.24
54628;BME280;40525;55.926;21.066;2022-12-11T14:14:50;100863.73;;;-4.56;77.51
54628;BME280;40525;55.926;21.066;2022-12-11T14:17:30;100871.95;;;-4.52;77.54
54628;BME280;40525;55.926;21.066;2022-12-11T14:20:02;100873.23;;;-4.52;77.51